Ana Sayfa
METAR-TAF:

METAR-TAF

Havaalanları :

Zvartnots Uluslararası Havalimanı

Erivan, Ermenistan

Enlem: 40-08-50N, Boylam: 044-23-45E, yükseklik: 865 m

Güncel hava durumu gözlemi

Rapor saat 20:00 UTC de 35 dakika önce yapıldı.
Rüzgar kuzeydoğudan 4 kt
Sıcaklık 20°C
Nem 40%
Basınç 1018 hPa
Görüş mesafesi 10 km veya daha fazla

METAR: UDYZ 232000Z 05004KT 9999 NSC 20/06 Q1018 R09/000070 NOSIG

Saat: 00:35 (20:35 UTC)

Tahmin

Rapor saat 17:02 UTC de 3 saat ve 33 dakika önce yapıldı.
Ayın 23'si saat 18 UTC'den ayın 24'si saat 18 UTC'ye kadar geçerli Tahmin
Rüzgar kuzeydoğudan 6 kt
Görüş mesafesi 10 km veya daha fazla
4000 ft yükseklikte az bulutlu
Geçici
ayın 23'si saat 18 UTC'den ayın 23'si saat 21 UTC'ye kadar
Rüzgar değişken yönden 16 kt
3000 ft yükseklikte parçalı çok bulutlu, Kümülonimbus.
gök gürültülü fırtına, hafif yağmur

TAF: UDYZ 231702Z 2318/2418 04006KT 9999 FEW040 TEMPO 2318/2321 VRB16KT -TSRA BKN030CB

4.000'den fazla havaalanı için hava durumu gözlemleri ve tahminleri (METAR ve TAF raporları).

Kullanılabilir istasyonlar harita üzerinde sarı ve kırmızı noktalarla gösterilir.

İstasyonun adını görmek için fareyi noktanın üzerinde gezdirin.

Sonrasında hava gözlem ve tahminlerini görmek için tıklayın.

Haritayı değiştirmek için: yaklaştırmak için siyah artı işaretli yeşil düğmeye ve uzaklaştırmak için de eksi işaretli düğmeye hızla tıklayın; bitişik haritalar için yeşil okları kullanın.


METAR-TAF: